createdAt,value
2023-05-22T00:00:20.957Z,17.53
2023-05-22T00:01:21.056Z,17.53
2023-05-22T00:02:21.019Z,17.57
2023-05-22T00:03:20.987Z,17.57
2023-05-22T00:04:20.936Z,17.63
2023-05-22T00:05:20.937Z,17.64
2023-05-22T00:06:20.965Z,17.64
2023-05-22T00:07:20.900Z,17.64
2023-05-22T00:08:20.876Z,17.59
2023-05-22T00:09:20.865Z,17.63
2023-05-22T00:10:20.867Z,17.59
2023-05-22T00:11:20.868Z,17.62
2023-05-22T00:12:20.825Z,17.62
2023-05-22T00:13:20.832Z,17.57
2023-05-22T00:14:20.814Z,17.55
2023-05-22T00:15:29.841Z,17.48
2023-05-22T00:16:20.868Z,17.47
2023-05-22T00:17:20.895Z,17.41
2023-05-22T00:18:20.825Z,17.38
2023-05-22T00:19:20.966Z,17.33
2023-05-22T00:20:20.764Z,17.29
2023-05-22T00:21:20.743Z,17.32
2023-05-22T00:22:20.716Z,17.33
2023-05-22T00:23:20.717Z,17.32
2023-05-22T00:24:20.712Z,17.35
2023-05-22T00:25:20.703Z,17.33
2023-05-22T00:26:20.717Z,17.30
2023-05-22T00:27:20.702Z,17.33
2023-05-22T00:28:20.677Z,17.36
2023-05-22T00:29:20.666Z,17.32
2023-05-22T00:30:20.622Z,17.30
2023-05-22T00:31:20.644Z,17.29
2023-05-22T00:32:20.623Z,17.20
2023-05-22T00:33:20.635Z,17.23
2023-05-22T00:34:20.641Z,17.15
2023-05-22T00:35:20.606Z,17.10
2023-05-22T00:36:20.596Z,17.10
2023-05-22T00:37:20.613Z,17.10
2023-05-22T00:38:20.568Z,17.14
2023-05-22T00:39:20.570Z,17.20
2023-05-22T00:40:20.563Z,17.26
2023-05-22T00:41:20.538Z,17.22
2023-05-22T00:42:20.557Z,17.23
2023-05-22T00:43:20.524Z,17.25
2023-05-22T00:45:38.335Z,17.22
2023-05-22T00:46:39.323Z,17.15
2023-05-22T00:47:39.297Z,17.13
2023-05-22T00:48:39.245Z,17.10
2023-05-22T00:49:39.268Z,17.03
2023-05-22T00:50:39.416Z,17.00
2023-05-22T00:51:39.389Z,16.96
2023-05-22T00:52:39.213Z,16.99
2023-05-22T00:53:39.212Z,16.93
2023-05-22T00:54:39.190Z,16.93
2023-05-22T00:55:39.184Z,16.89
2023-05-22T00:56:39.190Z,16.85
2023-05-22T00:57:39.225Z,16.85
2023-05-22T00:58:39.153Z,16.85
2023-05-22T00:59:39.172Z,16.81
2023-05-22T01:00:39.340Z,16.78
2023-05-22T01:01:39.215Z,16.78
2023-05-22T01:02:39.174Z,16.77
2023-05-22T01:03:39.246Z,16.75
2023-05-22T01:04:39.124Z,16.80
2023-05-22T01:05:39.094Z,16.85
2023-05-22T01:06:39.111Z,16.80
2023-05-22T01:07:39.106Z,16.81
2023-05-22T01:08:39.056Z,16.92
2023-05-22T01:09:39.083Z,16.96
2023-05-22T01:10:39.288Z,16.96
2023-05-22T01:11:39.041Z,16.98
2023-05-22T01:12:39.032Z,17.03
2023-05-22T01:13:38.994Z,16.99
2023-05-22T01:14:38.994Z,16.99
2023-05-22T01:15:38.986Z,16.99
2023-05-22T01:16:39.003Z,16.90
2023-05-22T01:17:39.014Z,16.92
2023-05-22T01:18:38.937Z,16.92
2023-05-22T01:19:38.947Z,16.93
2023-05-22T01:20:39.231Z,16.99
2023-05-22T01:21:38.911Z,17.03
2023-05-22T01:22:38.928Z,17.03
2023-05-22T01:23:38.908Z,17.04
2023-05-22T01:24:38.873Z,17.04
2023-05-22T01:25:38.892Z,17.04
2023-05-22T01:26:38.889Z,17.10
2023-05-22T01:27:38.852Z,17.06
2023-05-22T01:28:38.835Z,16.99
2023-05-22T01:29:38.836Z,16.95
2023-05-22T01:30:39.157Z,16.92
2023-05-22T01:31:38.814Z,16.88
2023-05-22T01:32:38.833Z,16.86
2023-05-22T01:33:38.943Z,16.85
2023-05-22T01:34:38.767Z,16.83
2023-05-22T01:35:38.781Z,16.80
2023-05-22T01:36:38.774Z,16.74
2023-05-22T01:37:38.752Z,16.70
2023-05-22T01:38:38.732Z,16.71
2023-05-22T01:39:38.816Z,16.71
2023-05-22T01:40:38.933Z,16.65
2023-05-22T01:41:38.743Z,16.62
2023-05-22T01:42:38.711Z,16.62
2023-05-22T01:43:38.653Z,16.62
2023-05-22T01:44:38.703Z,16.59
2023-05-22T01:45:38.723Z,16.60
2023-05-22T01:46:38.663Z,16.74
2023-05-22T01:47:38.697Z,16.83
2023-05-22T01:48:38.653Z,16.88
2023-05-22T01:49:38.653Z,16.96
2023-05-22T01:50:38.733Z,17.06
2023-05-22T01:51:38.640Z,17.08
2023-05-22T01:52:38.601Z,17.18
2023-05-22T01:53:38.596Z,17.23
2023-05-22T01:54:38.632Z,17.26
2023-05-22T01:55:38.613Z,17.22
2023-05-22T01:56:38.589Z,17.25
2023-05-22T01:57:38.583Z,17.20
2023-05-22T01:58:38.593Z,17.20
2023-05-22T01:59:38.537Z,17.23
2023-05-22T02:00:38.683Z,17.22
2023-05-22T02:01:38.608Z,17.22
2023-05-22T02:02:38.638Z,17.23
2023-05-22T02:03:38.612Z,17.25
2023-05-22T02:04:38.479Z,17.23
2023-05-22T02:05:38.487Z,17.25
2023-05-22T02:06:38.458Z,17.33
2023-05-22T02:07:38.496Z,17.26
2023-05-22T02:08:38.419Z,17.26
2023-05-22T02:09:38.444Z,17.30
2023-05-22T02:10:38.592Z,17.36
2023-05-22T02:11:38.440Z,17.30
2023-05-22T02:12:38.412Z,17.28
2023-05-22T02:13:38.412Z,17.33
2023-05-22T02:14:38.378Z,17.30
2023-05-22T02:15:38.405Z,17.32
2023-05-22T02:16:38.365Z,17.29
2023-05-22T02:17:38.393Z,17.18
2023-05-22T02:18:38.351Z,17.17
2023-05-22T02:19:38.374Z,17.07
2023-05-22T02:20:38.581Z,17.07
2023-05-22T02:21:38.299Z,17.18
2023-05-22T02:22:38.302Z,17.18
2023-05-22T02:23:38.292Z,17.15
2023-05-22T02:24:38.248Z,17.10
2023-05-22T02:25:38.296Z,17.07
2023-05-22T02:26:38.284Z,16.95
2023-05-22T02:27:38.256Z,16.92
2023-05-22T02:28:38.225Z,16.89
2023-05-22T02:29:38.284Z,16.96
2023-05-22T02:30:38.401Z,17.06
2023-05-22T02:31:38.238Z,17.13
2023-05-22T02:32:38.200Z,17.15
2023-05-22T02:33:38.204Z,17.13
2023-05-22T02:34:38.162Z,17.10
2023-05-22T02:35:38.209Z,17.13
2023-05-22T02:36:38.168Z,17.11
2023-05-22T02:37:38.151Z,17.11
2023-05-22T02:38:38.136Z,17.11
2023-05-22T02:39:38.122Z,17.06
2023-05-22T02:40:38.261Z,17.03
2023-05-22T02:41:38.111Z,17.00
2023-05-22T02:42:38.100Z,16.99
2023-05-22T02:43:38.105Z,16.99
2023-05-22T02:44:38.065Z,16.95
2023-05-22T02:45:38.058Z,16.98
2023-05-22T02:46:38.106Z,17.03
2023-05-22T02:47:38.108Z,17.04
2023-05-22T02:48:38.011Z,17.00
2023-05-22T02:49:38.022Z,17.04
2023-05-22T02:50:38.259Z,17.04
2023-05-22T02:51:37.985Z,17.08
2023-05-22T02:52:37.971Z,17.13
2023-05-22T02:53:37.977Z,17.15
2023-05-22T02:54:37.987Z,17.11
2023-05-22T02:55:37.950Z,17.08
2023-05-22T02:56:37.962Z,17.07
2023-05-22T02:57:37.945Z,16.98
2023-05-22T02:58:37.878Z,16.95
2023-05-22T02:59:37.879Z,16.96
2023-05-22T03:00:38.024Z,16.90
2023-05-22T03:01:37.881Z,16.86
2023-05-22T03:02:37.900Z,16.89
2023-05-22T03:03:37.850Z,16.93
2023-05-22T03:04:37.849Z,16.95
2023-05-22T03:05:37.858Z,16.92
2023-05-22T03:06:37.775Z,16.83
2023-05-22T03:07:37.760Z,16.78
2023-05-22T03:08:37.757Z,16.73
2023-05-22T03:09:37.762Z,16.65
2023-05-22T03:10:37.976Z,16.56
2023-05-22T03:11:37.742Z,16.56
2023-05-22T03:12:37.703Z,16.50
2023-05-22T03:13:37.706Z,16.42
2023-05-22T03:14:37.712Z,16.40
2023-05-22T03:15:37.682Z,16.35
2023-05-22T03:16:37.680Z,16.42
2023-05-22T03:17:37.717Z,16.52
2023-05-22T03:18:37.658Z,16.58
2023-05-22T03:19:37.661Z,16.60
2023-05-22T03:20:37.751Z,16.62
2023-05-22T03:21:37.641Z,16.58
2023-05-22T03:22:37.649Z,16.56
2023-05-22T03:23:37.592Z,16.53
2023-05-22T03:24:37.629Z,16.50
2023-05-22T03:25:37.600Z,16.41
2023-05-22T03:26:37.580Z,16.37
2023-05-22T03:27:37.598Z,16.27
2023-05-22T03:28:37.589Z,16.20
2023-05-22T03:29:37.553Z,16.11
2023-05-22T03:30:37.917Z,16.14
2023-05-22T03:31:37.518Z,16.09
2023-05-22T03:32:37.584Z,16.01
2023-05-22T03:33:37.537Z,15.99
2023-05-22T03:34:37.480Z,15.93
2023-05-22T03:35:37.489Z,15.97
2023-05-22T03:36:37.456Z,15.92
2023-05-22T03:37:37.467Z,15.89
2023-05-22T03:38:37.462Z,15.86
2023-05-22T03:39:37.425Z,15.82
2023-05-22T03:40:37.613Z,15.81
2023-05-22T03:41:37.415Z,15.76
2023-05-22T03:42:37.395Z,15.72
2023-05-22T03:43:37.411Z,15.67
2023-05-22T03:44:37.396Z,15.70
2023-05-22T03:45:37.427Z,15.66
2023-05-22T03:46:37.384Z,15.64
2023-05-22T03:47:37.386Z,15.63
2023-05-22T03:48:37.325Z,15.63
2023-05-22T03:49:37.342Z,15.57
2023-05-22T03:50:37.431Z,15.57
2023-05-22T03:51:37.332Z,15.52
2023-05-22T03:52:37.323Z,15.52
2023-05-22T03:53:37.280Z,15.51
2023-05-22T03:54:37.294Z,15.52
2023-05-22T03:55:37.300Z,15.48
2023-05-22T03:56:37.262Z,15.49
2023-05-22T03:57:37.283Z,15.43
2023-05-22T03:58:37.277Z,15.42
2023-05-22T03:59:37.224Z,15.43
2023-05-22T04:00:37.288Z,15.43
2023-05-22T04:01:37.238Z,15.39
2023-05-22T04:02:37.275Z,15.41
2023-05-22T04:03:37.184Z,15.41
2023-05-22T04:04:37.193Z,15.39
2023-05-22T04:05:37.247Z,15.42
2023-05-22T04:06:37.181Z,15.41
2023-05-22T04:07:37.180Z,15.38
2023-05-22T04:08:37.142Z,15.43
2023-05-22T04:09:37.132Z,15.46
2023-05-22T04:10:37.353Z,15.48
2023-05-22T04:11:37.124Z,15.51
2023-05-22T04:12:37.094Z,15.56
2023-05-22T04:13:37.068Z,15.61
2023-05-22T04:14:37.099Z,15.64
2023-05-22T04:15:37.065Z,15.72
2023-05-22T04:16:37.059Z,15.68
2023-05-22T04:17:37.090Z,15.72
2023-05-22T04:18:37.020Z,15.72
2023-05-22T04:19:37.069Z,15.70
2023-05-22T04:20:37.126Z,15.68
2023-05-22T04:21:36.979Z,15.70
2023-05-22T04:22:37.018Z,15.68
2023-05-22T04:23:36.986Z,15.66
2023-05-22T04:24:36.953Z,15.66
2023-05-22T04:25:36.955Z,15.68
2023-05-22T04:26:40.994Z,15.70
2023-05-22T04:27:36.941Z,15.74
2023-05-22T04:28:36.951Z,15.72
2023-05-22T04:29:36.956Z,15.75
2023-05-22T04:30:37.072Z,15.78
2023-05-22T04:31:37.032Z,15.79
2023-05-22T04:32:36.920Z,15.78
2023-05-22T04:33:36.920Z,15.75
2023-05-22T04:34:36.853Z,15.81
2023-05-22T04:35:36.854Z,15.79
2023-05-22T04:36:36.866Z,15.84
2023-05-22T04:37:36.829Z,15.82
2023-05-22T04:38:36.842Z,15.82
2023-05-22T04:39:36.804Z,15.86
2023-05-22T04:40:36.987Z,15.86
2023-05-22T04:41:36.840Z,15.89
2023-05-22T04:42:36.779Z,15.86
2023-05-22T04:43:36.760Z,15.89
2023-05-22T04:44:36.772Z,15.89
2023-05-22T04:45:36.727Z,15.89
2023-05-22T04:46:36.799Z,15.96
2023-05-22T04:47:36.801Z,15.97
2023-05-22T04:48:36.743Z,15.96
2023-05-22T04:49:36.743Z,16.00
2023-05-22T04:50:36.744Z,15.99
2023-05-22T04:51:36.687Z,16.03
2023-05-22T04:52:36.679Z,16.01
2023-05-22T04:53:36.650Z,16.06
2023-05-22T04:54:36.640Z,16.03
2023-05-22T04:55:36.797Z,16.07
2023-05-22T04:56:37.404Z,16.09
2023-05-22T04:57:36.633Z,16.07
2023-05-22T04:58:36.611Z,16.12
2023-05-22T04:59:36.593Z,16.14
2023-05-22T05:00:36.619Z,16.11
2023-05-22T05:01:36.695Z,16.12
2023-05-22T05:02:36.663Z,16.18
2023-05-22T05:03:36.646Z,16.25
2023-05-22T05:04:36.564Z,16.38
2023-05-22T05:05:36.564Z,16.44
2023-05-22T05:06:36.512Z,16.53
2023-05-22T05:07:36.499Z,16.58
2023-05-22T05:08:36.560Z,16.65
2023-05-22T05:09:36.531Z,16.67
2023-05-22T05:10:45.546Z,16.70
2023-05-22T05:11:36.483Z,16.71
2023-05-22T05:12:36.468Z,16.71
2023-05-22T05:13:36.472Z,16.70
2023-05-22T05:14:36.459Z,16.65
2023-05-22T05:15:36.427Z,16.70
2023-05-22T05:16:36.457Z,16.67
2023-05-22T05:17:36.501Z,16.67
2023-05-22T05:18:36.459Z,16.62
2023-05-22T05:19:37.160Z,16.68
2023-05-22T05:20:36.513Z,16.71
2023-05-22T05:21:36.352Z,16.77
2023-05-22T05:22:37.491Z,16.74
2023-05-22T05:23:36.418Z,16.83
2023-05-22T05:26:38.219Z,16.98
2023-05-22T05:27:39.242Z,17.06
2023-05-22T05:28:39.141Z,17.07
2023-05-22T05:34:28.795Z,17.40
2023-05-22T05:35:29.654Z,17.41
2023-05-22T05:36:29.648Z,17.50
2023-05-22T05:37:29.590Z,17.55
2023-05-22T05:38:29.513Z,17.62
2023-05-22T05:39:29.468Z,17.70
2023-05-22T05:40:29.471Z,17.74
2023-05-22T05:41:29.455Z,17.84
2023-05-22T05:42:29.400Z,17.92
2023-05-22T05:43:29.401Z,17.97
2023-05-22T05:44:29.406Z,18.02
2023-05-22T05:45:29.384Z,18.06
2023-05-22T05:46:29.637Z,18.12
2023-05-22T05:47:29.488Z,18.18
2023-05-22T05:50:56.748Z,18.39
2023-05-22T05:51:57.822Z,18.43
2023-05-22T05:52:57.746Z,18.52
2023-05-22T05:53:57.854Z,18.55
2023-05-22T05:54:57.710Z,18.54
2023-05-22T05:55:57.873Z,18.62
2023-05-22T05:56:57.716Z,18.68
2023-05-22T05:57:57.662Z,18.74
2023-05-22T05:58:57.740Z,18.82
2023-05-22T05:59:57.647Z,18.86
2023-05-22T06:00:57.654Z,18.86
2023-05-22T06:01:57.625Z,18.95
2023-05-22T06:02:57.706Z,19.02
2023-05-22T06:03:57.710Z,19.08
2023-05-22T06:04:57.607Z,19.14
2023-05-22T06:05:57.665Z,19.18
2023-05-22T06:06:57.596Z,19.29
2023-05-22T06:07:57.560Z,19.36
2023-05-22T06:08:57.572Z,19.46
2023-05-22T06:09:57.541Z,19.50
2023-05-22T06:10:57.540Z,19.55
2023-05-22T06:11:57.595Z,19.58
2023-05-22T06:12:57.503Z,19.61
2023-05-22T06:13:57.531Z,19.69
2023-05-22T06:14:57.514Z,19.72
2023-05-22T06:15:59.749Z,19.79
2023-05-22T06:16:57.582Z,19.79
2023-05-22T06:17:57.496Z,19.84
2023-05-22T06:18:57.497Z,19.88
2023-05-22T07:54:59.030Z,21.69
2023-05-22T07:55:59.117Z,21.67
2023-05-22T07:56:59.076Z,21.72
2023-05-22T07:57:59.031Z,21.83
2023-05-22T07:58:59.010Z,21.83
2023-05-22T07:59:59.016Z,21.88
2023-05-22T08:00:58.991Z,21.95
2023-05-22T08:01:59.000Z,21.99
2023-05-22T08:02:59.128Z,22.13
2023-05-22T08:05:26.694Z,22.27
2023-05-22T08:06:27.721Z,22.27
2023-05-22T08:08:41.705Z,21.91
2023-05-22T08:09:42.693Z,21.90
2023-05-22T08:11:01.994Z,21.76
2023-05-22T08:11:42.655Z,21.75
2023-05-22T08:12:42.653Z,21.75
2023-05-22T08:15:33.815Z,21.66
2023-05-22T08:16:41.308Z,21.56
2023-05-22T08:17:34.740Z,21.56
2023-05-22T08:18:34.686Z,21.60
2023-05-22T08:19:34.813Z,21.71
2023-05-22T08:20:34.691Z,21.81
2023-05-22T08:21:34.666Z,21.90
2023-05-22T08:22:34.632Z,21.82
2023-05-22T08:23:34.614Z,21.83
2023-05-22T08:24:34.617Z,21.85
2023-05-22T08:25:34.611Z,21.88
2023-05-22T08:26:34.618Z,21.82
2023-05-22T08:27:34.676Z,21.78
2023-05-22T08:28:34.554Z,21.83
2023-05-22T08:29:34.559Z,21.79
2023-05-22T08:30:34.547Z,21.79
2023-05-22T08:31:34.684Z,21.81
2023-05-22T08:32:34.571Z,21.81
2023-05-22T08:33:34.534Z,21.79
2023-05-22T08:34:34.509Z,21.82
2023-05-22T08:35:34.489Z,21.85
2023-05-22T08:36:34.524Z,21.85
2023-05-22T08:37:34.462Z,21.81
2023-05-22T08:38:34.464Z,21.83
2023-05-22T08:39:34.447Z,21.72
2023-05-22T08:40:34.473Z,21.67
2023-05-22T08:41:34.420Z,21.78
2023-05-22T08:42:34.405Z,21.88
2023-05-22T08:43:34.423Z,21.95
2023-05-22T08:44:34.405Z,21.90
2023-05-22T08:45:34.453Z,21.76
2023-05-22T08:46:34.385Z,21.66
2023-05-22T08:47:34.447Z,21.67
2023-05-22T08:48:34.440Z,21.74
2023-05-22T08:49:34.334Z,21.83
2023-05-22T08:50:34.332Z,21.92
2023-05-22T08:51:34.324Z,21.99
2023-05-22T08:52:34.317Z,22.01
2023-05-22T08:53:34.336Z,22.06
2023-05-22T08:54:34.288Z,22.06
2023-05-22T08:55:34.290Z,22.10
2023-05-22T08:56:35.429Z,22.17
2023-05-22T08:57:34.252Z,22.16
2023-05-22T08:58:34.270Z,22.17
2023-05-22T08:59:34.238Z,22.17
2023-05-22T09:00:34.243Z,22.06
2023-05-22T09:01:34.311Z,22.16
2023-05-22T09:02:34.207Z,22.22
2023-05-22T09:03:34.300Z,22.23
2023-05-22T09:04:34.261Z,22.31
2023-05-22T09:05:34.220Z,22.22
2023-05-22T09:06:34.196Z,22.23
2023-05-22T09:07:34.182Z,22.31
2023-05-22T09:08:34.118Z,22.29
2023-05-22T09:09:34.178Z,22.25
2023-05-22T10:12:55.784Z,23.12
2023-05-22T10:13:56.874Z,23.14
2023-05-22T10:14:56.741Z,23.14
2023-05-22T10:15:56.939Z,23.17
2023-05-22T10:36:53.245Z,23.70
2023-05-22T10:37:52.818Z,23.65
2023-05-22T10:38:52.828Z,23.55
2023-05-22T10:39:52.833Z,23.64
2023-05-22T10:40:53.134Z,23.62
2023-05-22T10:41:52.791Z,23.65
2023-05-22T10:57:34.295Z,24.08
2023-05-22T10:58:34.826Z,24.17
2023-05-22T10:59:34.675Z,24.22
2023-05-22T11:21:15.183Z,24.22
2023-05-22T11:23:36.561Z,24.10
2023-05-22T11:24:37.423Z,24.29
2023-05-22T11:25:37.412Z,24.53
2023-05-22T11:26:38.263Z,24.76
2023-05-22T11:27:37.418Z,24.68
2023-05-22T11:28:37.384Z,24.77
2023-05-22T11:34:00.039Z,25.44
2023-05-22T11:35:00.861Z,25.02
2023-05-22T11:36:00.851Z,24.67
2023-05-22T11:37:01.003Z,24.71
2023-05-22T11:38:00.966Z,24.69
2023-05-22T11:39:00.906Z,24.79
2023-05-22T11:44:46.693Z,25.31
2023-05-22T11:45:47.632Z,25.43
2023-05-22T11:46:47.725Z,25.62
2023-05-22T11:47:47.633Z,25.53
2023-05-22T11:48:47.647Z,25.31
2023-05-22T11:49:47.573Z,25.28
2023-05-22T11:50:47.999Z,25.16
2023-05-22T11:51:47.556Z,24.90
2023-05-22T11:52:47.611Z,24.69
2023-05-22T11:53:47.542Z,24.35
2023-05-22T11:54:47.566Z,24.31
2023-05-22T11:55:47.547Z,24.31
2023-05-22T11:56:47.521Z,24.45
2023-05-22T11:57:47.488Z,24.63
2023-05-22T11:58:47.507Z,24.83
2023-05-22T11:59:47.579Z,24.94
2023-05-22T12:00:47.526Z,24.68
2023-05-22T12:01:47.450Z,24.68
2023-05-22T12:02:47.726Z,24.77
2023-05-22T12:03:47.536Z,24.87
2023-05-22T12:04:47.415Z,25.07
2023-05-22T12:05:47.409Z,25.16
2023-05-22T12:06:47.482Z,25.28
2023-05-22T12:07:47.410Z,25.30
2023-05-22T12:08:47.398Z,25.35
2023-05-22T12:09:47.375Z,25.32
2023-05-22T12:10:47.370Z,25.42
2023-05-22T12:11:47.384Z,25.59
2023-05-22T12:12:47.407Z,25.71
2023-05-22T12:13:47.311Z,25.89
2023-05-22T12:14:47.348Z,25.99
2023-05-22T12:15:47.324Z,25.94
2023-05-22T12:16:47.333Z,25.80
2023-05-22T12:17:47.407Z,25.79
2023-05-22T12:18:47.360Z,25.56
2023-05-22T12:19:47.295Z,25.38
2023-05-22T12:20:47.287Z,25.34
2023-05-22T12:21:47.323Z,25.27
2023-05-22T12:22:47.270Z,25.20
2023-05-22T12:23:47.220Z,25.32
2023-05-22T12:24:47.375Z,25.39
2023-05-22T12:25:47.228Z,25.44
2023-05-22T12:26:47.223Z,25.49
2023-05-22T12:27:47.500Z,25.61
2023-05-22T12:28:47.322Z,25.65
2023-05-22T12:29:48.081Z,25.69
2023-05-22T12:30:47.564Z,25.80
2023-05-22T12:31:47.301Z,25.77
2023-05-22T12:32:47.366Z,25.80
2023-05-22T12:33:47.157Z,25.87
2023-05-22T12:34:47.274Z,25.98
2023-05-22T12:35:47.167Z,25.91
2023-05-22T12:36:47.250Z,25.86
2023-05-22T12:37:47.109Z,25.89
2023-05-22T12:38:47.152Z,25.80
2023-05-22T12:39:47.131Z,25.75
2023-05-22T12:40:47.094Z,25.77
2023-05-22T12:41:47.263Z,25.82
2023-05-22T12:44:31.377Z,25.99
2023-05-22T12:45:32.397Z,25.82
2023-05-22T12:46:32.499Z,25.46
2023-05-22T12:47:32.357Z,25.25
2023-05-22T12:48:32.310Z,25.19
2023-05-22T12:49:32.304Z,25.16
2023-05-22T12:50:32.288Z,25.28
2023-05-22T12:51:32.454Z,25.12
2023-05-22T12:52:32.292Z,25.09
2023-05-22T12:53:32.267Z,25.07
2023-05-22T12:54:32.245Z,24.88
2023-05-22T12:55:32.348Z,24.90
2023-05-22T12:56:32.371Z,24.83
2023-05-22T12:57:32.210Z,24.98
2023-05-22T12:58:32.215Z,25.13
2023-05-22T12:59:32.268Z,25.12
2023-05-22T13:00:32.195Z,25.17
2023-05-22T13:01:32.222Z,25.16
2023-05-22T13:02:32.187Z,25.19
2023-05-22T13:03:32.230Z,25.16
2023-05-22T13:04:32.278Z,25.24
2023-05-22T13:05:33.098Z,25.15
2023-05-22T13:06:32.156Z,25.07
2023-05-22T13:07:32.125Z,24.80
2023-05-22T13:08:32.932Z,24.73
2023-05-22T13:09:32.075Z,24.80
2023-05-22T13:10:32.162Z,24.95
2023-05-22T13:11:32.117Z,25.10
2023-05-22T13:12:32.081Z,25.12
2023-05-22T13:13:32.085Z,25.22
2023-05-22T13:14:32.047Z,25.34
2023-05-22T13:15:32.050Z,25.42
2023-05-22T13:16:32.080Z,25.54
2023-05-22T13:17:32.049Z,25.54
2023-05-22T13:18:32.064Z,25.54
2023-05-22T13:19:32.136Z,25.57
2023-05-22T13:20:32.067Z,25.67
2023-05-22T13:21:32.023Z,25.75
2023-05-22T13:22:32.014Z,25.84
2023-05-22T13:23:31.975Z,25.75
2023-05-22T13:24:31.938Z,25.82
2023-05-22T13:25:34.927Z,25.83
2023-05-22T13:26:31.924Z,25.77
2023-05-22T13:27:33.675Z,25.52
2023-05-22T13:28:31.912Z,25.43
2023-05-22T13:29:31.889Z,25.43
2023-05-22T13:30:47.711Z,25.52
2023-05-22T13:31:31.909Z,25.56
2023-05-22T13:32:31.902Z,25.61
2023-05-22T13:33:31.852Z,25.68
2023-05-22T13:34:31.936Z,25.68
2023-05-22T13:35:31.841Z,25.77
2023-05-22T13:36:31.815Z,25.83
2023-05-22T13:37:31.872Z,25.82
2023-05-22T13:38:31.827Z,25.83
2023-05-22T13:39:33.596Z,25.87
2023-05-22T13:40:31.773Z,25.93
2023-05-22T13:41:31.746Z,25.72
2023-05-22T13:42:31.779Z,25.74
2023-05-22T13:43:31.764Z,25.80
2023-05-22T13:44:31.773Z,25.79
2023-05-22T13:45:31.822Z,25.77
2023-05-22T13:46:32.421Z,25.68
2023-05-22T13:47:31.961Z,25.56
2023-05-22T13:48:32.335Z,25.42
2023-05-22T13:49:31.759Z,25.46
2023-05-22T13:50:31.771Z,25.44
2023-05-22T13:51:31.666Z,25.42
2023-05-22T13:52:31.742Z,25.32
2023-05-22T13:53:31.697Z,25.39
2023-05-22T13:54:31.621Z,25.46
2023-05-22T13:55:31.622Z,25.54
2023-05-22T13:56:31.615Z,25.44
2023-05-22T13:57:31.652Z,25.34
2023-05-22T13:58:31.591Z,25.25
2023-05-22T13:59:31.600Z,25.07
2023-05-22T14:00:31.592Z,24.97
2023-05-22T14:01:31.641Z,24.91
2023-05-22T14:02:31.610Z,24.88
2023-05-22T14:03:32.616Z,24.90
2023-05-22T14:04:31.554Z,24.97
2023-05-22T14:05:31.559Z,25.00
2023-05-22T14:06:31.521Z,25.17
2023-05-22T14:07:31.500Z,25.28
2023-05-22T14:08:32.079Z,25.39
2023-05-22T14:09:31.513Z,25.50
2023-05-22T14:10:31.476Z,25.61
2023-05-22T14:11:31.507Z,25.61
2023-05-22T14:12:31.449Z,25.57
2023-05-22T14:13:31.549Z,25.71
2023-05-22T14:14:31.445Z,25.69
2023-05-22T14:15:31.460Z,25.69
2023-05-22T14:16:31.457Z,25.75
2023-05-22T14:17:31.425Z,25.77
2023-05-22T14:18:31.433Z,25.77
2023-05-22T14:19:31.476Z,25.77
2023-05-22T14:20:31.397Z,25.74
2023-05-22T14:21:31.380Z,25.72
2023-05-22T14:22:36.133Z,25.75
2023-05-22T14:23:31.324Z,25.75
2023-05-22T14:24:31.316Z,25.72
2023-05-22T14:25:31.297Z,25.67
2023-05-22T14:26:31.317Z,25.61
2023-05-22T14:27:31.285Z,25.56
2023-05-22T14:28:31.285Z,25.46
2023-05-22T14:29:31.302Z,25.31
2023-05-22T14:30:31.312Z,25.24
2023-05-22T14:31:31.334Z,25.15
2023-05-22T14:32:32.193Z,25.00
2023-05-22T14:33:31.229Z,24.88
2023-05-22T14:34:31.226Z,24.80
2023-05-22T14:35:31.203Z,24.79
2023-05-22T14:36:31.235Z,24.77
2023-05-22T14:37:31.194Z,24.75
2023-05-22T14:38:31.361Z,24.80
2023-05-22T14:39:31.210Z,24.90
2023-05-22T14:40:31.237Z,25.05
2023-05-22T14:41:31.157Z,25.10
2023-05-22T14:42:32.844Z,25.15
2023-05-22T14:43:31.160Z,25.15
2023-05-22T14:44:31.687Z,25.12
2023-05-22T14:45:31.942Z,25.10
2023-05-22T14:46:31.997Z,25.05
2023-05-22T14:47:31.940Z,24.95
2023-05-22T14:48:31.829Z,24.94
2023-05-22T14:49:31.152Z,24.94
2023-05-22T14:50:31.616Z,24.94
2023-05-22T14:51:31.549Z,24.97
2023-05-22T14:52:32.129Z,25.02
2023-05-22T14:53:31.133Z,25.15
2023-05-22T14:54:31.952Z,25.28
2023-05-22T14:55:31.452Z,25.34
2023-05-22T14:56:31.838Z,25.30
2023-05-22T14:57:31.138Z,25.24
2023-05-22T14:58:31.066Z,25.16
2023-05-22T14:59:31.860Z,25.09
2023-05-22T15:00:31.863Z,25.09
2023-05-22T15:01:31.105Z,25.09
2023-05-22T15:02:31.081Z,25.13
2023-05-22T15:03:31.462Z,25.17
2023-05-22T15:04:30.937Z,25.10
2023-05-22T15:05:30.935Z,25.12
2023-05-22T15:06:31.172Z,25.09
2023-05-22T15:07:43.256Z,25.06
2023-05-22T15:08:30.939Z,25.09
2023-05-22T15:09:31.458Z,25.07
2023-05-22T15:10:31.466Z,25.07
2023-05-22T15:11:31.075Z,25.06
2023-05-22T15:12:31.359Z,25.01
2023-05-22T15:13:30.892Z,24.94
2023-05-22T15:14:30.838Z,24.85
2023-05-22T15:15:30.843Z,24.76
2023-05-22T15:16:30.868Z,24.75
2023-05-22T15:17:31.361Z,24.69
2023-05-22T15:18:30.820Z,24.73
2023-05-22T15:19:30.832Z,24.71
2023-05-22T15:20:30.781Z,24.73
2023-05-22T15:21:30.807Z,24.71
2023-05-22T15:22:30.752Z,24.73
2023-05-22T15:23:30.782Z,24.79
2023-05-22T15:24:31.090Z,24.85
2023-05-22T15:25:30.696Z,24.76
2023-05-22T15:26:30.724Z,24.71
2023-05-22T15:27:30.695Z,24.63
2023-05-22T15:28:30.673Z,24.63
2023-05-22T15:29:30.683Z,24.68
2023-05-22T15:30:30.674Z,24.69
2023-05-22T15:31:30.659Z,24.71
2023-05-22T15:32:30.849Z,24.69
2023-05-22T15:33:30.631Z,24.73
2023-05-22T15:34:30.617Z,24.77
2023-05-22T15:35:30.620Z,24.79
2023-05-22T15:36:30.620Z,24.71
2023-05-22T15:37:32.204Z,24.68
2023-05-22T15:38:31.570Z,24.63
2023-05-22T15:39:30.560Z,24.57
2023-05-22T15:40:30.537Z,24.52
2023-05-22T15:41:30.531Z,24.52
2023-05-22T15:42:30.551Z,24.53
2023-05-22T15:43:30.537Z,24.47
2023-05-22T15:44:30.517Z,24.42
2023-05-22T15:45:30.593Z,24.39
2023-05-22T15:46:30.579Z,24.37
2023-05-22T15:47:30.506Z,24.29
2023-05-22T15:48:30.472Z,24.29
2023-05-22T15:49:31.348Z,24.27
2023-05-22T15:50:30.751Z,24.29
2023-05-22T15:51:30.429Z,24.27
2023-05-22T15:52:30.441Z,24.31
2023-05-22T15:53:30.413Z,24.32
2023-05-22T15:54:30.444Z,24.31
2023-05-22T15:55:30.425Z,24.27
2023-05-22T15:56:30.374Z,24.31
2023-05-22T15:57:30.365Z,24.32
2023-05-22T15:58:30.413Z,24.35
2023-05-22T15:59:30.338Z,24.38
2023-05-22T16:00:30.519Z,24.34
2023-05-22T16:01:30.385Z,24.31
2023-05-22T16:02:30.418Z,24.29
2023-05-22T16:03:30.434Z,24.27
2023-05-22T16:04:30.303Z,24.26
2023-05-22T16:05:30.314Z,24.22
2023-05-22T16:06:30.296Z,24.24
2023-05-22T16:07:30.289Z,24.20
2023-05-22T16:08:30.258Z,24.22
2023-05-22T16:09:32.533Z,24.22
2023-05-22T16:10:30.234Z,24.26
2023-05-22T16:11:30.376Z,24.24
2023-05-22T16:12:30.232Z,24.17
2023-05-22T16:13:30.391Z,24.22
2023-05-22T16:14:30.195Z,24.17
2023-05-22T16:15:30.196Z,24.14
2023-05-22T16:16:30.243Z,24.02
2023-05-22T16:17:30.214Z,23.64
2023-05-22T16:18:30.249Z,23.42
2023-05-22T16:19:31.130Z,23.23
2023-05-22T16:20:30.142Z,23.14
2023-05-22T16:21:30.148Z,23.01
2023-05-22T16:22:40.304Z,22.90
2023-05-22T16:23:30.136Z,22.93
2023-05-22T16:24:30.086Z,22.83
2023-05-22T16:25:30.054Z,22.87
2023-05-22T16:26:30.088Z,22.83
2023-05-22T16:27:30.402Z,22.71
2023-05-22T16:28:30.047Z,22.64
2023-05-22T16:29:30.034Z,22.52
2023-05-22T16:30:30.022Z,22.28
2023-05-22T16:31:30.063Z,22.23
2023-05-22T16:32:30.037Z,22.04
2023-05-22T16:33:29.989Z,22.06
2023-05-22T16:34:30.007Z,21.94
2023-05-22T16:35:29.990Z,21.92
2023-05-22T16:36:29.962Z,21.91
2023-05-22T16:37:30.009Z,21.78
2023-05-22T16:38:29.941Z,21.92
2023-05-22T16:39:29.936Z,21.92
2023-05-22T16:40:29.914Z,21.94
2023-05-22T16:41:29.905Z,21.98
2023-05-22T16:42:29.906Z,21.95
2023-05-22T16:43:29.920Z,22.06
2023-05-22T16:44:29.878Z,22.09
2023-05-22T16:45:29.879Z,22.14
2023-05-22T16:46:29.962Z,22.09
2023-05-22T16:47:29.900Z,22.12
2023-05-22T16:48:29.832Z,22.16
2023-05-22T16:49:29.820Z,22.02
2023-05-22T16:50:29.836Z,21.76
2023-05-22T16:51:29.819Z,21.60
2023-05-22T16:52:29.797Z,21.56